Flight Track Log - Related Links

Times and Time Zones

All times are in EDT time to prevent confusion due to time zone crossing. See the AWI3623 flight status page for this flight to view local times or setup timezone preferences in your user account.

Time Position Orientation Groundspeed Altitude Reporting Facility
EDT Latitude Longitude Course Direction KTS MPH feet Rate Location/Type
Sun 03:28:43 PM 41.9436 -72.7025 180° South 138 159 900  Level Boston Center
Sun 03:29:44 PM 41.9164 -72.7442 229° Southwest 189 217 2,900 1,843 Climbing Boston Center
Sun 03:30:50 PM 41.8539 -72.7661 195° South 228 262 4,800 1,143 Climbing Boston Center
Sun 03:31:00 PM 41.6797 -72.5565 160° South  Level FlightAware Approximate
Sun 03:31:50 PM 41.7936 -72.7381 161° South 236 272 5,300  Level Boston Center
Sun 03:32:00 PM 41.6046 -72.4902 132° Southeast  Level FlightAware Approximate
Sun 03:32:50 PM 41.7186 -72.6986 159° South 256 295 8,600  Level Boston Center
Sun 03:33:00 PM 41.5443 -72.3961 129° Southeast  Level FlightAware Approximate
Sun 03:33:50 PM 41.6728 -72.6236 129° Southeast 276 318 11,000  Level Boston Center
Sun 03:34:00 PM 41.4682 -72.3500 180° South  Level FlightAware Approximate
Sun 03:34:50 PM 41.6167 -72.5261 128° Southeast 298 343 13,600  Level Boston Center
Sun 03:35:50 PM 41.5625 -72.4483 133° Southeast 312 359 15,600 2,150 Climbing Boston Center
Sun 03:36:50 PM 41.4792 -72.4400 176° South 267 307 17,900 2,150 Climbing Boston Center
Sun 03:37:50 PM 41.4106 -72.4344 177° South 277 319 19,900 1,050 Climbing Boston Center
Sun 03:38:50 PM 41.3250 -72.4344 180° South 288 331 20,000 50 Climbing Boston Center
Sun 03:39:50 PM 41.2478 -72.5008 213° Southwest 296 341 20,000  Level Boston Center
Sun 03:40:50 PM 41.1792 -72.5725 218° Southwest 303 349 20,000  Level Boston Center
Sun 03:41:50 PM 41.1061 -72.6303 211° Southwest 308 354 20,000  Level Boston Center
Sun 03:42:50 PM 41.0308 -72.6906 211° Southwest 315 362 20,000  Level Boston Center
Sun 03:43:50 PM 40.9600 -72.7617 217° Southwest 320 368 20,000  Level Boston Center
Sun 03:44:50 PM 40.8825 -72.8081 204° Southwest 320 368 20,000  Level Boston Center
Sun 03:45:50 PM 40.8075 -72.8622 209° Southwest 320 368 20,000  Level Boston Center
Sun 03:48:20 PM 40.6200 -73.0022 210° Southwest 320 368 20,000  Level New York Center
Sun 03:49:17 PM 40.5439 -73.0597 210° Southwest 320 368 20,000  Level New York Center
Sun 03:50:18 PM 40.4697 -73.1172 211° Southwest 320 368 20,000  Level New York Center
Sun 03:51:19 PM 40.3956 -73.1719 209° Southwest 314 361 20,000  Level New York Center
Sun 03:52:19 PM 40.3194 -73.2292 210° Southwest 314 361 20,000  Level New York Center
Sun 03:53:20 PM 40.2453 -73.2864 210° Southwest 314 361 20,000  Level New York Center
Sun 03:54:19 PM 40.1711 -73.3433 210° Southwest 314 361 20,000  Level New York Center
Sun 03:55:17 PM 40.0950 -73.3975 209° Southwest 314 361 20,000  Level New York Center
Sun 03:56:18 PM 40.0206 -73.4569 211° Southwest 314 361 20,000  Level New York Center
Sun 03:57:19 PM 39.9486 -73.5056 207° Southwest 314 361 20,000  Level New York Center
Sun 03:58:17 PM 39.8844 -73.5761 220° Southwest 314 361 20,000 -100 Level New York Center
Sun 03:59:19 PM 39.8261 -73.6631 229° Southwest 308 354 19,800 -645 Descending New York Center
Sun 04:00:18 PM 39.7697 -73.7525 231° Southwest 319 367 18,700 -1,178 Descending New York Center
Sun 04:01:06 PM 39.7233 -73.8244 230° Southwest 318 366 17,700 -1,111 Descending Washington Center
Sun 04:02:06 PM 39.6664 -73.9122 230° Southwest 313 360 16,700 -966 Descending Washington Center
Sun 04:03:04 PM 39.6133 -73.9969 231° Southwest 308 354 15,800 -1,220 Descending Washington Center
Sun 04:04:04 PM 39.5581 -74.0842 231° Southwest 308 354 14,300 -900 Descending Washington Center
Sun 04:05:04 PM 39.4964 -74.1556 222° Southwest 300 345 14,000 -149 Descending Washington Center
Sun 04:06:05 PM 39.4219 -74.1944 202° Southwest 288 331 14,000  Level Washington Center
Sun 04:07:06 PM 39.3453 -74.2308 200° South 293 337 14,000  Level Washington Center
Sun 04:08:04 PM 39.2664 -74.2700 201° Southwest 300 345 14,000 -51 Level Washington Center
Sun 04:09:04 PM 39.2153 -74.3433 228° Southwest 275 316 13,900  Descending Washington Center
Sun 04:10:04 PM 39.2536 -74.4417 297° West 237 273 14,000 -397 Climbing Washington Center
Sun 04:11:05 PM 39.3044 -74.5347 305° West 260 299 13,100 -1,372 Descending Washington Center
Sun 04:13:12 PM 39.4000 -74.7167 304° West 256 295 9,700 -1,316 Descending Philadelphia TRACON
Sun 04:14:12 PM 39.4500 -74.7833 314° West 257 296 9,000 -504 Descending Philadelphia TRACON
Sun 04:15:23 PM 39.5000 -74.8833 303° West 260 299 8,600 -909 Descending Philadelphia TRACON
Sun 04:16:24 PM 39.5000 -74.9667 270° West 248 285 7,000 -1,339 Descending Philadelphia TRACON
Sun 04:17:24 PM 39.5167 -75.0500 285° West 245 282 5,900 -1,111 Descending Philadelphia TRACON
Sun 04:18:12 PM 39.5500 -75.1000 311° West 239 275 5,000 -500 Descending Philadelphia TRACON
Sun 04:19:12 PM 39.6167 -75.1167 349° North 232 267 5,000 -250 Level Philadelphia TRACON
Sun 04:20:12 PM 39.6500 -75.1500 322° Northwest 154 177 4,500 -750 Descending Philadelphia TRACON
Sun 04:21:12 PM 39.7000 -75.1333 14° North 176 203 3,500 -1,000 Descending Philadelphia TRACON
Sun 04:22:12 PM 39.7333 -75.1500 339° North 150 173 2,500 -1,000 Descending Philadelphia TRACON

Login

Don't have an account? Register now (free) for customized features, flight alerts, and more!